Time;durP1;ratioP1;P1;durP2;ratioP2;P2;SDS_P1;SDS_P2;PMS_P1;PMS_P2;Temp;Humidity;BMP_temperature;BMP_pressure;BME280_temperature;BME280_humidity;BME280_pressure;Samples;Min_cycle;Max_cycle;Signal;HPM_P1;HPM_P2
2024/02/28 00:00:05;;;;;;;24.40;10.03;;;;;;;8.92;100.00;96096.47;5056834;28;20216;-70
2024/02/28 00:02:33;;;;;;;26.57;9.43;;;;;;;8.85;100.00;96099.97;5056974;28;20223;-68
2024/02/28 00:04:59;;;;;;;25.03;9.37;;;;;;;8.85;100.00;96106.03;5057200;28;20201;-70
2024/02/28 00:07:26;;;;;;;25.43;9.90;;;;;;;8.78;100.00;96104.25;5056884;28;20197;-70
2024/02/28 00:09:57;;;;;;;22.03;8.20;;;;;;;8.60;100.00;96111.53;5057578;28;20992;-69
2024/02/28 00:12:24;;;;;;;22.13;8.50;;;;;;;8.79;100.00;96105.91;5056703;28;20227;-67
2024/02/28 00:14:51;;;;;;;25.90;9.60;;;;;;;8.72;100.00;96104.94;5057213;28;20212;-70
2024/02/28 00:17:17;;;;;;;22.17;9.10;;;;;;;8.93;100.00;96092.88;5057419;28;20226;-70
2024/02/28 00:19:45;;;;;;;28.00;10.43;;;;;;;9.11;100.00;96099.53;5056361;28;20228;-68
2024/02/28 00:22:12;;;;;;;28.63;8.87;;;;;;;8.80;100.00;96097.84;5057110;28;20486;-71
2024/02/28 00:24:38;;;;;;;22.47;8.80;;;;;;;8.75;100.00;96105.41;5056849;28;20201;-71
2024/02/28 00:27:05;;;;;;;28.13;9.57;;;;;;;8.67;100.00;96100.19;5057266;28;20197;-69
2024/02/28 00:29:31;;;;;;;24.90;9.50;;;;;;;8.60;100.00;96114.16;5056619;28;20576;-68
2024/02/28 00:31:58;;;;;;;24.40;9.67;;;;;;;8.66;100.00;96116.94;5057560;28;20203;-70
2024/02/28 00:34:25;;;;;;;26.03;9.13;;;;;;;8.42;100.00;96099.59;5056058;28;20201;-70
2024/02/28 00:36:53;;;;;;;30.30;9.40;;;;;;;8.68;100.00;96101.00;5056156;28;20248;-67
2024/02/28 00:39:20;;;;;;;24.80;9.23;;;;;;;8.39;100.00;96110.41;5056898;28;20626;-68
2024/02/28 00:41:46;;;;;;;34.17;10.33;;;;;;;8.38;100.00;96101.72;5056456;28;20201;-70
2024/02/28 00:44:13;;;;;;;21.93;9.37;;;;;;;8.41;100.00;96109.25;5055760;28;20200;-70
2024/02/28 00:46:40;;;;;;;27.43;10.60;;;;;;;8.65;100.00;96098.72;5056703;28;20453;-70
2024/02/28 00:49:07;;;;;;;23.60;8.83;;;;;;;8.28;100.00;96110.78;5056491;28;20204;-70
2024/02/28 00:51:33;;;;;;;25.60;9.87;;;;;;;8.55;100.00;96109.41;5056349;28;20555;-68
2024/02/28 00:54:01;;;;;;;25.07;9.37;;;;;;;8.70;100.00;96109.53;5055631;28;20297;-67
2024/02/28 00:56:28;;;;;;;26.40;9.73;;;;;;;8.49;100.00;96114.53;5055992;28;20221;-68
2024/02/28 00:58:55;;;;;;;27.67;9.40;;;;;;;8.55;100.00;96124.34;5055683;28;20471;-70
2024/02/28 01:01:21;;;;;;;25.63;8.73;;;;;;;8.42;100.00;96123.22;5056244;28;20667;-69
2024/02/28 01:03:48;;;;;;;28.20;10.30;;;;;;;8.41;100.00;96132.91;5054627;28;20216;-70
2024/02/28 01:06:15;;;;;;;27.17;9.23;;;;;;;8.39;100.00;96131.41;5056318;28;20201;-69
2024/02/28 01:08:42;;;;;;;27.17;10.37;;;;;;;8.25;100.00;96138.19;5055432;28;20231;-69
2024/02/28 01:11:11;;;;;;;23.10;10.10;;;;;;;8.55;100.00;96134.84;5056099;28;20208;-69
2024/02/28 01:13:37;;;;;;;27.63;9.37;;;;;;;8.37;100.00;96136.03;5055381;28;20220;-68
2024/02/28 01:16:04;;;;;;;24.10;8.87;;;;;;;8.33;100.00;96137.34;5055662;28;20227;-70
2024/02/28 01:18:32;;;;;;;26.03;9.43;;;;;;;8.22;100.00;96138.53;5055331;28;20667;-71
2024/02/28 01:20:58;;;;;;;28.67;9.90;;;;;;;8.23;100.00;96134.06;5055989;28;20215;-69
2024/02/28 01:23:25;;;;;;;27.00;9.13;;;;;;;8.20;100.00;96134.41;5054859;28;20721;-70
2024/02/28 01:25:51;;;;;;;30.90;11.30;;;;;;;8.45;100.00;96146.53;5055736;28;20231;-71
2024/02/28 01:28:19;;;;;;;27.97;9.33;;;;;;;8.72;100.00;96146.97;5055497;28;20588;-70
2024/02/28 01:30:45;;;;;;;30.60;10.33;;;;;;;8.62;100.00;96151.59;5055769;28;20204;-70
2024/02/28 01:33:12;;;;;;;29.33;10.20;;;;;;;8.71;100.00;96163.72;5054356;28;20593;-70
2024/02/28 01:35:39;;;;;;;24.10;9.33;;;;;;;8.60;100.00;96169.31;5055330;28;21001;-68
2024/02/28 01:38:05;;;;;;;27.47;10.57;;;;;;;8.44;100.00;96179.00;5055633;28;20201;-68
2024/02/28 01:40:32;;;;;;;30.63;10.73;;;;;;;8.57;100.00;96180.97;5054996;28;20579;-70
2024/02/28 01:43:03;;;;;;;29.90;11.57;;;;;;;8.58;100.00;96181.81;5053939;28;20231;-71
2024/02/28 01:45:31;;;;;;;34.13;11.30;;;;;;;8.61;100.00;96178.84;5056376;28;20910;-68
2024/02/28 01:47:58;;;;;;;32.10;11.23;;;;;;;8.48;100.00;96183.78;5054827;28;20215;-70
2024/02/28 01:50:24;;;;;;;32.30;10.77;;;;;;;8.60;100.00;96180.66;5055374;28;20206;-70
2024/02/28 01:52:51;;;;;;;29.27;9.90;;;;;;;8.74;100.00;96174.69;5053978;28;20448;-70
2024/02/28 01:55:18;;;;;;;29.37;9.90;;;;;;;8.63;100.00;96179.47;5055020;28;20206;-68
2024/02/28 01:57:45;;;;;;;28.87;10.53;;;;;;;8.82;100.00;96176.47;5055030;28;20221;-70
2024/02/28 02:00:12;;;;;;;27.00;9.67;;;;;;;8.87;100.00;96180.28;5055323;28;20561;-70
2024/02/28 02:02:41;;;;;;;25.03;10.27;;;;;;;9.02;100.00;96181.19;5054239;28;20716;-70
2024/02/28 02:05:09;;;;;;;28.67;10.50;;;;;;;9.00;100.00;96177.09;5054253;28;20201;-70
2024/02/28 02:07:36;;;;;;;32.67;10.47;;;;;;;8.89;100.00;96191.41;5054991;28;20197;-71
2024/02/28 02:10:03;;;;;;;32.27;11.47;;;;;;;8.71;100.00;96201.31;5055092;28;20697;-71
2024/02/28 02:12:29;;;;;;;28.50;10.77;;;;;;;8.57;100.00;96207.22;5054732;28;20220;-69
2024/02/28 02:14:56;;;;;;;30.07;10.47;;;;;;;8.82;100.00;96206.22;5054268;28;20205;-69
2024/02/28 02:17:22;;;;;;;26.23;10.27;;;;;;;8.74;100.00;96202.78;5055647;28;20239;-67
2024/02/28 02:19:50;;;;;;;27.60;10.40;;;;;;;8.80;100.00;96204.75;5054087;28;20208;-70
2024/02/28 02:22:18;;;;;;;30.87;9.57;;;;;;;8.88;100.00;96200.28;5054860;28;20247;-70
2024/02/28 02:24:46;;;;;;;29.47;10.00;;;;;;;9.04;100.00;96202.88;5053815;28;20196;-69
2024/02/28 02:27:13;;;;;;;29.63;10.67;;;;;;;8.96;100.00;96200.28;5055310;28;20199;-68
2024/02/28 02:29:39;;;;;;;30.77;10.73;;;;;;;8.98;100.00;96195.66;5054757;28;20208;-70
2024/02/28 02:32:06;;;;;;;31.43;11.57;;;;;;;8.99;100.00;96202.56;5055017;28;20209;-70
2024/02/28 02:34:33;;;;;;;29.17;10.23;;;;;;;8.82;100.00;96206.22;5054101;28;20208;-69
2024/02/28 02:36:59;;;;;;;35.00;10.77;;;;;;;8.74;100.00;96208.84;5055037;28;20497;-68
2024/02/28 02:39:26;;;;;;;24.83;9.93;;;;;;;8.88;100.00;96209.97;5054895;28;20205;-70
2024/02/28 02:41:53;;;;;;;34.47;11.03;;;;;;;8.87;100.00;96209.19;5054662;28;20205;-70
2024/02/28 02:44:20;;;;;;;30.73;10.93;;;;;;;8.78;100.00;96204.09;5053904;28;20674;-68
2024/02/28 02:46:46;;;;;;;31.90;10.97;;;;;;;8.90;100.00;96211.47;5054032;28;20208;-70
2024/02/28 02:49:13;;;;;;;31.13;10.20;;;;;;;8.87;100.00;96205.72;5054803;28;20209;-70
2024/02/28 02:51:42;;;;;;;30.57;10.53;;;;;;;8.88;100.00;96213.41;5055163;28;20567;-69
2024/02/28 02:54:08;;;;;;;32.63;11.23;;;;;;;8.92;100.00;96212.09;5053685;28;20581;-70
2024/02/28 02:56:35;;;;;;;31.63;9.80;;;;;;;8.91;100.00;96205.22;5054757;28;20633;-70
2024/02/28 02:59:03;;;;;;;28.57;10.67;;;;;;;8.97;100.00;96209.78;5054627;28;20478;-71
2024/02/28 03:01:29;;;;;;;27.67;9.43;;;;;;;8.94;100.00;96210.13;5054184;28;20601;-67
2024/02/28 03:03:56;;;;;;;32.63;11.30;;;;;;;8.83;100.00;96212.28;5054809;28;20224;-71
2024/02/28 03:06:23;;;;;;;29.37;10.70;;;;;;;8.96;100.00;96216.06;5058117;28;20236;-70
2024/02/28 03:08:50;;;;;;;36.67;10.77;;;;;;;8.96;100.00;96213.44;5057973;28;20211;-70
2024/02/28 03:11:16;;;;;;;28.07;10.40;;;;;;;8.99;100.00;96218.34;5058282;28;20203;-69
2024/02/28 03:13:43;;;;;;;29.30;10.03;;;;;;;8.98;100.00;96218.50;5057536;28;20220;-70
2024/02/28 03:16:11;;;;;;;31.43;9.63;;;;;;;9.04;100.00;96210.78;5057646;28;20201;-70
2024/02/28 03:18:37;;;;;;;31.60;10.87;;;;;;;8.45;100.00;96218.22;5057848;28;20211;-71
2024/02/28 03:21:04;;;;;;;30.73;11.17;;;;;;;8.47;100.00;96218.09;5057523;28;20677;-67
2024/02/28 03:23:31;;;;;;;30.17;11.17;;;;;;;8.33;100.00;96216.91;5057209;28;20220;-67
2024/02/28 03:25:57;;;;;;;29.60;10.20;;;;;;;8.38;100.00;96221.69;5058032;28;20242;-71
2024/02/28 03:28:24;;;;;;;30.90;10.07;;;;;;;8.61;100.00;96228.75;5057605;28;20196;-70
2024/02/28 03:30:50;;;;;;;29.47;9.80;;;;;;;8.63;100.00;96224.97;5056872;28;20311;-69
2024/02/28 03:33:18;;;;;;;30.93;10.03;;;;;;;8.90;100.00;96227.22;5055196;28;20224;-70
2024/02/28 03:35:45;;;;;;;29.17;10.80;;;;;;;8.59;100.00;96235.94;5058073;28;20196;-69
2024/02/28 03:38:11;;;;;;;28.73;11.10;;;;;;;8.31;100.00;96236.44;5057403;28;20570;-68
2024/02/28 03:40:38;;;;;;;32.77;11.23;;;;;;;8.40;100.00;96241.56;5057535;28;20376;-67
2024/02/28 03:43:05;;;;;;;38.43;11.10;;;;;;;8.38;100.00;96237.44;5057065;28;20930;-70
2024/02/28 03:45:31;;;;;;;33.27;11.80;;;;;;;8.29;100.00;96241.84;5058224;28;20207;-70
2024/02/28 03:47:57;;;;;;;29.47;11.40;;;;;;;8.15;100.00;96244.31;5056901;28;20220;-69
2024/02/28 03:50:25;;;;;;;28.40;10.83;;;;;;;8.36;100.00;96242.03;5057804;28;20201;-70
2024/02/28 03:52:52;;;;;;;34.93;12.07;;;;;;;8.21;100.00;96238.41;5056361;28;20698;-70
2024/02/28 03:55:18;;;;;;;33.87;11.73;;;;;;;8.18;100.00;96236.09;5057727;28;20204;-70
2024/02/28 03:57:48;;;;;;;32.47;10.90;;;;;;;8.02;100.00;96236.06;5056490;28;20380;-67
2024/02/28 04:00:15;;;;;;;29.13;10.37;;;;;;;7.77;100.00;96231.72;5056991;28;20204;-68
2024/02/28 04:02:41;;;;;;;33.83;11.60;;;;;;;7.98;100.00;96239.97;5056179;28;20225;-68
2024/02/28 04:05:08;;;;;;;35.80;12.60;;;;;;;7.92;100.00;96240.63;5057342;28;20204;-69
2024/02/28 04:07:36;;;;;;;35.50;10.53;;;;;;;8.01;100.00;96239.66;5057377;28;20197;-69
2024/02/28 04:10:05;;;;;;;33.97;10.50;;;;;;;7.85;100.00;96242.22;5057241;28;20631;-69
2024/02/28 04:12:31;;;;;;;32.27;11.40;;;;;;;8.09;100.00;96244.91;5056079;28;20227;-70
2024/02/28 04:14:58;;;;;;;31.53;10.73;;;;;;;8.14;100.00;96250.53;5056726;28;20200;-70
2024/02/28 04:17:24;;;;;;;31.60;11.13;;;;;;;7.96;100.00;96247.19;5057282;28;20490;-70
2024/02/28 04:19:51;;;;;;;28.90;9.60;;;;;;;7.89;100.00;96251.44;5056592;28;20209;-70
2024/02/28 04:22:17;;;;;;;32.10;10.17;;;;;;;7.71;100.00;96248.09;5056833;28;20326;-67
2024/02/28 04:24:45;;;;;;;40.27;11.83;;;;;;;8.06;100.00;96255.75;5056962;28;20350;-70
2024/02/28 04:27:11;;;;;;;39.83;12.27;;;;;;;8.03;100.00;96261.28;5057198;28;20207;-70
2024/02/28 04:29:39;;;;;;;37.17;11.67;;;;;;;7.91;100.00;96265.22;5056803;28;20203;-68
2024/02/28 04:32:06;;;;;;;32.83;11.33;;;;;;;7.80;100.00;96260.25;5056589;28;20212;-70
2024/02/28 04:34:32;;;;;;;34.37;11.27;;;;;;;7.86;100.00;96263.06;5055645;28;20204;-70
2024/02/28 04:36:58;;;;;;;37.37;12.37;;;;;;;7.99;100.00;96268.69;5056285;28;20228;-70
2024/02/28 04:39:25;;;;;;;38.00;10.50;;;;;;;7.98;100.00;96268.81;5055916;28;20701;-68
2024/02/28 04:41:53;;;;;;;41.17;12.37;;;;;;;7.91;100.00;96275.72;5056166;28;20205;-70
2024/02/28 04:44:19;;;;;;;34.17;12.27;;;;;;;7.77;100.00;96281.56;5055676;28;20202;-70
2024/02/28 04:46:46;;;;;;;35.07;12.50;;;;;;;8.10;100.00;96293.81;5056643;28;20203;-70
2024/02/28 04:49:12;;;;;;;37.70;12.17;;;;;;;8.00;100.00;96291.31;5055787;28;20216;-69
2024/02/28 04:51:39;;;;;;;44.67;13.83;;;;;;;7.87;100.00;96300.63;5056319;28;20207;-68
2024/02/28 04:54:05;;;;;;;36.07;12.23;;;;;;;7.96;100.00;96304.91;5055532;28;20224;-70
2024/02/28 04:56:32;;;;;;;32.57;11.50;;;;;;;7.85;100.00;96315.69;5056608;28;20193;-70
2024/02/28 04:59:00;;;;;;;36.63;12.10;;;;;;;8.07;100.00;96301.97;5055402;28;20506;-69
2024/02/28 05:01:28;;;;;;;36.37;11.37;;;;;;;7.68;100.00;96315.81;5056288;28;20235;-68
2024/02/28 05:03:54;;;;;;;36.63;10.67;;;;;;;7.95;100.00;96311.13;5055867;28;20221;-70
2024/02/28 05:06:21;;;;;;;35.87;10.53;;;;;;;8.15;100.00;96326.47;5056214;28;20212;-69
2024/02/28 05:08:47;;;;;;;37.87;12.40;;;;;;;8.10;100.00;96317.44;5055876;28;20200;-69
2024/02/28 05:11:14;;;;;;;41.00;10.97;;;;;;;8.21;100.00;96317.97;5056728;28;20200;-70
2024/02/28 05:13:40;;;;;;;34.70;10.97;;;;;;;8.01;100.00;96321.00;5054953;28;20227;-69
2024/02/28 05:16:14;;;;;;;33.37;11.17;;;;;;;7.99;100.00;96320.34;5057046;28;20667;-70
2024/02/28 05:18:41;;;;;;;30.17;10.27;;;;;;;7.89;100.00;96319.63;5055913;28;20228;-71
2024/02/28 05:21:07;;;;;;;37.97;11.67;;;;;;;8.02;100.00;96314.78;5055637;28;20205;-67
2024/02/28 05:23:34;;;;;;;35.87;11.77;;;;;;;8.06;100.00;96316.09;5055094;28;20224;-70
2024/02/28 05:26:03;;;;;;;35.13;11.63;;;;;;;8.02;100.00;96315.59;5056781;28;20204;-70
2024/02/28 05:28:30;;;;;;;33.90;11.60;;;;;;;7.86;100.00;96319.97;5055390;28;20262;-69
2024/02/28 05:30:56;;;;;;;35.90;11.67;;;;;;;7.63;100.00;96321.50;5055598;28;20204;-68
2024/02/28 05:33:24;;;;;;;31.17;10.53;;;;;;;7.79;100.00;96321.59;5055577;28;20224;-70
2024/02/28 05:35:51;;;;;;;31.67;10.50;;;;;;;7.55;100.00;96336.41;5055873;28;20227;-70
2024/02/28 05:38:17;;;;;;;35.27;11.30;;;;;;;7.91;100.00;96338.69;5056398;28;20963;-70
2024/02/28 05:40:43;;;;;;;36.27;12.10;;;;;;;7.85;100.00;96348.97;5055665;28;20207;-69
2024/02/28 05:43:10;;;;;;;35.00;11.70;;;;;;;7.92;100.00;96345.56;5055055;28;20601;-70
2024/02/28 05:45:36;;;;;;;34.67;12.50;;;;;;;7.64;100.00;96362.50;5055141;28;20200;-69
2024/02/28 05:48:03;;;;;;;36.63;11.10;;;;;;;7.85;100.00;96370.78;5055529;28;20208;-68
2024/02/28 05:50:32;;;;;;;36.80;11.87;;;;;;;7.92;100.00;96367.38;5055170;28;20207;-68
2024/02/28 05:52:59;;;;;;;39.73;11.03;;;;;;;7.93;100.00;96379.53;5054833;28;20247;-68
2024/02/28 05:55:26;;;;;;;34.57;12.13;;;;;;;8.13;100.00;96385.34;5056243;28;20200;-71
2024/02/28 05:57:52;;;;;;;34.93;11.47;;;;;;;8.16;100.00;96396.38;5055495;28;20232;-70
2024/02/28 06:00:19;;;;;;;32.67;10.53;;;;;;;8.28;100.00;96391.66;5055511;28;20582;-69
2024/02/28 06:02:46;;;;;;;34.47;11.60;;;;;;;8.33;100.00;96387.56;5054484;28;20220;-71
2024/02/28 06:05:13;;;;;;;32.17;11.67;;;;;;;8.15;100.00;96399.97;5055277;28;20567;-71
2024/02/28 06:07:41;;;;;;;31.60;10.47;;;;;;;8.07;100.00;96397.28;5055915;28;20196;-68
2024/02/28 06:10:10;;;;;;;32.53;11.17;;;;;;;7.94;100.00;96410.03;5055368;28;20203;-71
2024/02/28 06:12:36;;;;;;;29.40;11.33;;;;;;;7.91;100.00;96409.50;5054901;28;20228;-69
2024/02/28 06:15:03;;;;;;;35.67;10.47;;;;;;;7.87;100.00;96413.44;5055366;28;20208;-68
2024/02/28 06:17:30;;;;;;;29.27;9.53;;;;;;;7.58;100.00;96418.16;5055304;28;20224;-68
2024/02/28 06:19:56;;;;;;;28.20;9.47;;;;;;;7.81;100.00;96421.91;5054946;28;20215;-70
2024/02/28 06:22:23;;;;;;;30.40;11.03;;;;;;;8.06;100.00;96432.38;5055874;28;20223;-71
2024/02/28 06:24:51;;;;;;;34.27;10.73;;;;;;;8.33;100.00;96426.94;5055417;28;20589;-70
2024/02/28 06:27:17;;;;;;;27.43;9.97;;;;;;;8.31;100.00;96430.72;5055141;28;20211;-71
2024/02/28 06:29:44;;;;;;;27.90;9.23;;;;;;;8.07;100.00;96438.44;5055157;28;20575;-71
2024/02/28 06:32:10;;;;;;;27.53;9.60;;;;;;;8.05;100.00;96440.41;5055656;28;20220;-71
2024/02/28 06:34:37;;;;;;;28.30;10.10;;;;;;;7.97;100.00;96437.75;5054734;28;20235;-70
2024/02/28 06:37:04;;;;;;;32.07;9.77;;;;;;;7.97;100.00;96443.81;5055314;28;20201;-71
2024/02/28 06:39:30;;;;;;;27.27;9.43;;;;;;;7.72;100.00;96440.41;5058080;28;20216;-70
2024/02/28 06:41:58;;;;;;;27.93;9.87;;;;;;;7.82;100.00;96446.38;5058188;28;20701;-70
2024/02/28 06:44:25;;;;;;;27.70;9.27;;;;;;;7.74;100.00;96444.50;5058273;28;20619;-68
2024/02/28 06:46:52;;;;;;;31.63;9.80;;;;;;;7.69;100.00;96445.94;5058932;28;20750;-68
2024/02/28 06:49:18;;;;;;;28.30;10.47;;;;;;;7.88;100.00;96444.75;5059058;28;20224;-71
2024/02/28 06:51:45;;;;;;;37.53;11.67;;;;;;;7.56;100.00;96451.59;5058914;28;20200;-70
2024/02/28 06:54:11;;;;;;;27.47;10.87;;;;;;;7.86;100.00;96445.06;5059066;28;20227;-69
2024/02/28 06:56:38;;;;;;;30.70;11.10;;;;;;;7.94;100.00;96444.13;5059052;28;20196;-71
2024/02/28 06:59:06;;;;;;;31.23;10.80;;;;;;;7.89;100.00;96442.94;5058639;28;20235;-71
2024/02/28 07:01:33;;;;;;;34.73;11.17;;;;;;;7.68;100.00;96457.41;5058600;28;20201;-69
2024/02/28 07:03:59;;;;;;;32.37;10.07;;;;;;;7.61;100.00;96459.00;5057001;28;20231;-70
2024/02/28 07:06:26;;;;;;;32.93;11.30;;;;;;;7.77;100.00;96457.31;5059269;28;20204;-72
2024/02/28 07:08:52;;;;;;;36.10;10.67;;;;;;;8.18;100.00;96462.66;5058474;28;20196;-71
2024/02/28 07:11:19;;;;;;;31.63;9.97;;;;;;;8.35;100.00;96460.91;5059391;28;20208;-68
2024/02/28 07:13:45;;;;;;;36.13;11.40;;;;;;;7.99;100.00;96462.88;5057356;28;20231;-71
2024/02/28 07:16:13;;;;;;;32.17;10.80;;;;;;;8.01;100.00;96466.13;5058345;28;20208;-71
2024/02/28 07:18:40;;;;;;;32.80;10.50;;;;;;;7.83;100.00;96472.44;5057958;28;20224;-69
2024/02/28 07:21:07;;;;;;;32.77;10.07;;;;;;;7.59;100.00;96474.88;5058543;28;20205;-71
2024/02/28 07:23:34;;;;;;;31.73;10.30;;;;;;;7.48;100.00;96469.06;5057761;28;20307;-68
2024/02/28 07:26:00;;;;;;;34.47;11.80;;;;;;;7.85;100.00;96475.72;5058550;28;20208;-71
2024/02/28 07:28:27;;;;;;;34.60;10.87;;;;;;;7.71;100.00;96476.28;5058322;28;20219;-70
2024/02/28 07:30:53;;;;;;;34.67;11.40;;;;;;;7.92;100.00;96482.00;5058658;28;20208;-70
2024/02/28 07:33:21;;;;;;;33.87;10.63;;;;;;;7.81;100.00;96479.63;5057440;28;20217;-70
2024/02/28 07:35:48;;;;;;;37.30;12.33;;;;;;;7.69;100.00;96480.88;5057557;28;20200;-71
2024/02/28 07:38:17;;;;;;;35.33;11.47;;;;;;;7.75;100.00;96477.63;5058083;28;20228;-68
2024/02/28 07:40:43;;;;;;;41.67;12.17;;;;;;;7.81;100.00;96484.88;5058234;28;20286;-70
2024/02/28 07:43:10;;;;;;;36.37;11.37;;;;;;;7.97;100.00;96477.13;5056335;28;20750;-70
2024/02/28 07:45:36;;;;;;;39.10;12.83;;;;;;;8.19;100.00;96489.72;5058348;28;20211;-69
2024/02/28 07:48:03;;;;;;;35.80;10.90;;;;;;;7.83;100.00;96488.19;5058466;28;20298;-71
2024/02/28 07:50:31;;;;;;;38.93;11.03;;;;;;;8.07;100.00;96488.31;5056154;28;20197;-68
2024/02/28 07:52:58;;;;;;;35.13;12.43;;;;;;;7.81;100.00;96490.13;5056703;28;20224;-70
2024/02/28 07:55:24;;;;;;;33.23;10.67;;;;;;;7.68;100.00;96494.94;5058501;28;20207;-68
2024/02/28 07:57:52;;;;;;;36.17;11.27;;;;;;;7.86;100.00;96493.09;5057367;28;20210;-70
2024/02/28 08:00:19;;;;;;;35.23;11.77;;;;;;;7.70;100.00;96490.38;5056732;28;20673;-69
2024/02/28 08:02:46;;;;;;;36.63;11.73;;;;;;;7.72;100.00;96498.91;5057290;28;20216;-68
2024/02/28 08:05:14;;;;;;;37.77;12.07;;;;;;;7.84;100.00;96497.69;5057533;28;20678;-70
2024/02/28 08:07:42;;;;;;;35.10;11.77;;;;;;;7.80;100.00;96500.78;5057398;28;20204;-70
2024/02/28 08:10:09;;;;;;;32.50;11.50;;;;;;;8.01;100.00;96507.31;5057005;28;20239;-69
2024/02/28 08:12:36;;;;;;;34.30;11.73;;;;;;;8.10;100.00;96512.44;5056970;28;20458;-71
2024/02/28 08:15:03;;;;;;;35.87;9.47;;;;;;;7.99;100.00;96506.63;5056740;28;20205;-71
2024/02/28 08:17:29;;;;;;;36.93;11.53;;;;;;;7.68;100.00;96515.94;5057384;28;20203;-72
2024/02/28 08:19:56;;;;;;;41.07;11.80;;;;;;;7.92;100.00;96509.06;5056581;28;20839;-69
2024/02/28 08:22:24;;;;;;;28.97;10.07;;;;;;;7.73;100.00;96507.63;5057035;28;20216;-71
2024/02/28 08:24:53;;;;;;;39.43;10.67;;;;;;;8.11;100.00;96502.78;5057676;28;20568;-70
2024/02/28 08:27:20;;;;;;;34.20;10.70;;;;;;;7.99;100.00;96510.09;5057263;28;20371;-71
2024/02/28 08:29:47;;;;;;;40.17;12.03;;;;;;;8.11;100.00;96513.28;5053153;28;20227;-70
2024/02/28 08:32:14;;;;;;;35.93;10.27;;;;;;;8.29;100.00;96506.19;5056490;28;20274;-72
2024/02/28 08:34:44;;;;;;;36.30;10.73;;;;;;;8.39;100.00;96510.34;5054720;28;20581;-70
2024/02/28 08:37:11;;;;;;;43.70;12.63;;;;;;;7.85;100.00;96515.06;5053967;28;20201;-68
2024/02/28 08:39:37;;;;;;;40.37;11.00;;;;;;;8.03;100.00;96515.84;5054511;28;20602;-70
2024/02/28 08:42:06;;;;;;;33.80;10.93;;;;;;;8.11;100.00;96526.41;5055341;28;20207;-70
2024/02/28 08:44:33;;;;;;;37.90;11.97;;;;;;;7.88;100.00;96522.66;5055013;28;20510;-71
2024/02/28 08:46:59;;;;;;;37.67;11.23;;;;;;;7.96;100.00;96527.94;5054828;28;20710;-70
2024/02/28 08:49:26;;;;;;;43.13;12.30;;;;;;;7.97;100.00;96526.97;5055873;28;20200;-70
2024/02/28 08:51:52;;;;;;;35.80;11.60;;;;;;;8.21;100.00;96529.75;5054440;28;20876;-68
2024/02/28 08:54:19;;;;;;;38.87;11.27;;;;;;;8.27;100.00;96532.56;5054995;28;20223;-71
2024/02/28 08:56:45;;;;;;;31.70;10.10;;;;;;;8.26;100.00;96532.75;5055178;28;20842;-70
2024/02/28 08:59:13;;;;;;;36.60;10.50;;;;;;;8.26;100.00;96535.38;5054927;28;20224;-68
2024/02/28 09:01:41;;;;;;;35.00;11.70;;;;;;;8.35;100.00;96539.69;5054426;28;20752;-68
2024/02/28 09:04:07;;;;;;;33.67;11.17;;;;;;;8.55;100.00;96544.53;5054773;28;21323;-68
2024/02/28 09:06:34;;;;;;;37.20;10.77;;;;;;;8.54;100.00;96543.72;5055759;28;20204;-70
2024/02/28 09:09:00;;;;;;;35.90;11.60;;;;;;;8.45;100.00;96541.22;5054926;28;20205;-68
2024/02/28 09:11:27;;;;;;;36.90;10.77;;;;;;;8.46;100.00;96539.44;5054908;28;20207;-70
2024/02/28 09:13:54;;;;;;;32.53;10.40;;;;;;;8.36;100.00;96544.78;5054309;28;21202;-70
2024/02/28 09:16:22;;;;;;;35.93;10.63;;;;;;;8.44;100.00;96551.88;5055061;28;20319;-68
2024/02/28 09:18:49;;;;;;;37.63;12.33;;;;;;;8.44;100.00;96544.84;5055341;28;20230;-70
2024/02/28 09:21:16;;;;;;;29.00;9.80;;;;;;;8.35;100.00;96542.31;5055189;28;20215;-71
2024/02/28 09:23:42;;;;;;;30.80;11.40;;;;;;;8.35;100.00;96548.41;5054873;28;20286;-71
2024/02/28 09:26:10;;;;;;;33.17;11.07;;;;;;;8.29;100.00;96548.19;5055086;28;20261;-70
2024/02/28 09:28:36;;;;;;;24.87;9.87;;;;;;;8.32;100.00;96540.81;5055955;28;20195;-70
2024/02/28 09:31:03;;;;;;;28.47;10.70;;;;;;;8.43;100.00;96539.75;5055284;28;20204;-72
2024/02/28 09:33:31;;;;;;;29.57;10.60;;;;;;;8.58;100.00;96544.25;5054314;28;20232;-70
2024/02/28 09:35:58;;;;;;;33.23;9.93;;;;;;;8.63;100.00;96541.94;5056007;28;20227;-70
2024/02/28 09:38:24;;;;;;;30.77;10.27;;;;;;;8.59;100.00;96551.13;5055144;28;20203;-68
2024/02/28 09:40:51;;;;;;;27.77;9.87;;;;;;;8.65;100.00;96546.06;5055182;28;20208;-68
2024/02/28 09:43:25;;;;;;;34.23;10.27;;;;;;;8.82;100.00;96552.22;5054870;28;20220;-71
2024/02/28 09:45:52;;;;;;;29.20;10.27;;;;;;;8.47;100.00;96559.47;5055750;28;20302;-71
2024/02/28 09:48:20;;;;;;;30.87;10.73;;;;;;;8.79;100.00;96550.72;5055175;28;20216;-70
2024/02/28 09:50:48;;;;;;;30.20;10.87;;;;;;;9.04;100.00;96552.47;5054471;28;20204;-72
2024/02/28 09:53:14;;;;;;;30.47;10.63;;;;;;;8.69;100.00;96557.94;5053707;28;20227;-69
2024/02/28 09:55:41;;;;;;;35.20;11.20;;;;;;;8.75;100.00;96557.28;5055298;28;20197;-67
2024/02/28 09:58:09;;;;;;;33.43;10.67;;;;;;;8.96;100.00;96560.34;5054477;28;20208;-71
2024/02/28 10:00:37;;;;;;;37.97;11.70;;;;;;;8.83;100.00;96564.38;5055188;28;20573;-72
2024/02/28 10:03:05;;;;;;;31.50;11.33;;;;;;;8.98;100.00;96558.34;5054099;28;20227;-68
2024/02/28 10:05:34;;;;;;;33.80;11.33;;;;;;;8.66;100.00;96563.47;5055860;28;20227;-71
2024/02/28 10:08:02;;;;;;;32.37;11.53;;;;;;;8.32;100.00;96566.25;5056145;28;20210;-70
2024/02/28 10:10:29;;;;;;;28.07;9.60;;;;;;;8.74;100.00;96563.50;5054774;28;20197;-72
2024/02/28 10:12:55;;;;;;;32.43;10.83;;;;;;;8.87;100.00;96563.91;5054095;28;20228;-69
2024/02/28 10:15:22;;;;;;;32.70;9.87;;;;;;;8.83;100.00;96575.69;5054731;28;20611;-68
2024/02/28 10:17:49;;;;;;;28.43;9.00;;;;;;;8.96;100.00;96576.09;5055936;28;20744;-72
2024/02/28 10:20:15;;;;;;;31.27;11.73;;;;;;;9.26;100.00;96576.34;5054271;28;20598;-72
2024/02/28 10:22:42;;;;;;;30.17;10.27;;;;;;;9.33;100.00;96579.16;5055092;28;20231;-69
2024/02/28 10:25:10;;;;;;;29.23;9.53;;;;;;;9.33;100.00;96582.63;5055752;28;20208;-71
2024/02/28 10:27:36;;;;;;;29.87;10.00;;;;;;;9.40;100.00;96580.16;5055454;28;20200;-71
2024/02/28 10:30:04;;;;;;;27.63;9.80;;;;;;;9.20;100.00;96589.31;5055455;28;20211;-71
2024/02/28 10:32:31;;;;;;;27.20;9.60;;;;;;;9.28;100.00;96591.97;5054556;28;20216;-71
2024/02/28 10:34:59;;;;;;;34.20;10.47;;;;;;;8.90;100.00;96597.75;5054689;28;20205;-71
2024/02/28 10:37:27;;;;;;;28.13;8.93;;;;;;;9.19;100.00;96603.47;5054938;28;20208;-71
2024/02/28 10:39:56;;;;;;;35.13;10.67;;;;;;;9.43;100.00;96600.88;5054805;28;20228;-71
2024/02/28 10:42:27;;;;;;;34.83;11.27;;;;;;;9.58;100.00;96604.53;5054805;28;20228;-71
2024/02/28 10:44:53;;;;;;;38.37;10.77;;;;;;;9.20;100.00;96611.19;5055202;28;20946;-73
2024/02/28 10:47:20;;;;;;;24.90;9.40;;;;;;;9.30;100.00;96605.78;5055741;28;20204;-69
2024/02/28 10:49:46;;;;;;;27.70;9.30;;;;;;;9.33;100.00;96610.69;5054959;28;20211;-69
2024/02/28 10:52:14;;;;;;;32.93;10.77;;;;;;;9.37;100.00;96609.44;5054659;28;20714;-69
2024/02/28 10:54:43;;;;;;;34.53;10.43;;;;;;;9.69;100.00;96611.09;5054203;28;20697;-69
2024/02/28 10:57:13;;;;;;;29.90;9.40;;;;;;;9.57;100.00;96597.59;5055656;28;20270;-72
2024/02/28 10:59:43;;;;;;;35.53;9.60;;;;;;;9.77;100.00;96608.47;5053233;28;20817;-70
2024/02/28 11:02:10;;;;;;;30.67;10.27;;;;;;;9.57;100.00;96616.03;5055572;28;20240;-69
2024/02/28 11:04:37;;;;;;;32.93;9.83;;;;;;;9.46;100.00;96613.72;5053473;28;20205;-73
2024/02/28 11:07:04;;;;;;;28.63;10.17;;;;;;;9.38;100.00;96618.94;5055089;28;20691;-73
2024/02/28 11:09:32;;;;;;;29.00;9.53;;;;;;;9.34;100.00;96617.63;5054600;28;20205;-69
2024/02/28 11:11:58;;;;;;;26.37;9.63;;;;;;;9.18;100.00;96622.84;5054847;28;21170;-72
2024/02/28 11:14:26;;;;;;;27.53;8.53;;;;;;;8.69;100.00;96615.72;5054222;28;20208;-70
2024/02/28 11:17:02;;;;;;;31.57;9.73;;;;;;;9.00;100.00;96619.47;5054581;28;20215;-72